Terminal Aerodrome Forecast
Issued by NWS Melbourne, FL

Current Version | Previous Version | Text Only | Print | Product List | Glossary On
Versions: 1 2 3 4 5 6 7 8 9 10 11 12
711
FTUS42 KMLB 282347
TAFMLB
TAF
KMLB 282347Z 2900/2924 14010KT P6SM SKC
     FM290600 21003KT P6SM SKC
     FM291400 22005KT P6SM SCT030
     FM291700 11012KT P6SM FEW045=

USA.gov is the U.S. government's official web portal to all federal, state and local government web resources and services.